Time;durP1;ratioP1;P1;durP2;ratioP2;P2;SDS_P1;SDS_P2;PMS_P1;PMS_P2;Temp;Humidity;BMP_temperature;BMP_pressure;BME280_temperature;BME280_humidity;BME280_pressure;Samples;Min_cycle;Max_cycle;Signal;HPM_P1;HPM_P2
2023/02/08 00:00:27;;;;;;;28.17;10.15;;;;;;;0.99;70.49;102270.16;5059618;28;20099;-48
2023/02/08 00:02:54;;;;;;;25.13;9.27;;;;;;;0.98;70.09;102267.50;5065928;28;20048;-46
2023/02/08 00:05:20;;;;;;;27.25;9.02;;;;;;;0.99;69.69;102269.25;5063099;28;20758;-49
2023/02/08 00:07:47;;;;;;;34.45;10.38;;;;;;;1.01;70.55;102268.59;5063361;28;20080;-48
2023/02/08 00:10:13;;;;;;;22.40;8.05;;;;;;;1.05;70.30;102268.81;5062771;28;20040;-47
2023/02/08 00:12:40;;;;;;;22.40;8.55;;;;;;;1.08;70.15;102263.94;5064428;28;20044;-49
2023/02/08 00:15:07;;;;;;;28.48;10.65;;;;;;;1.08;70.26;102269.03;5063682;28;20091;-48
2023/02/08 00:17:34;;;;;;;30.67;9.90;;;;;;;1.04;69.70;102261.94;5061866;28;20076;-48
2023/02/08 00:20:00;;;;;;;23.13;10.45;;;;;;;1.00;70.16;102263.38;5060145;28;20044;-50
2023/02/08 00:22:27;;;;;;;25.95;9.52;;;;;;;0.97;69.48;102258.03;5065376;28;20105;-46
2023/02/08 00:24:53;;;;;;;30.70;9.30;;;;;;;0.94;70.00;102261.25;5067800;28;20043;-48
2023/02/08 00:27:20;;;;;;;27.05;8.35;;;;;;;0.95;70.12;102265.56;5066720;28;20051;-52
2023/02/08 00:29:47;;;;;;;27.65;9.52;;;;;;;0.96;70.49;102269.03;5055827;28;20201;-46
2023/02/08 00:32:13;;;;;;;26.75;9.50;;;;;;;0.92;70.03;102262.81;5064841;28;20052;-47
2023/02/08 00:34:40;;;;;;;24.45;9.15;;;;;;;0.91;70.74;102265.25;5063780;28;20454;-47
2023/02/08 00:37:06;;;;;;;15.35;6.93;;;;;;;0.91;70.04;102263.56;5064782;28;20071;-51
2023/02/08 00:39:33;;;;;;;25.75;8.32;;;;;;;0.93;70.66;102268.81;5065987;28;20044;-49
2023/02/08 00:41:59;;;;;;;30.10;8.05;;;;;;;0.94;70.97;102261.25;5069483;28;20075;-46
2023/02/08 00:44:26;;;;;;;26.77;8.57;;;;;;;0.97;70.10;102258.03;5064574;28;20631;-49
2023/02/08 00:46:53;;;;;;;24.35;10.02;;;;;;;0.97;71.16;102256.38;5066237;28;20630;-46
2023/02/08 00:49:20;;;;;;;29.15;7.90;;;;;;;0.96;71.24;102249.50;5062210;28;20049;-47
2023/02/08 00:51:47;;;;;;;26.25;7.68;;;;;;;0.96;70.60;102254.63;5067657;28;20088;-48
2023/02/08 00:54:15;;;;;;;25.35;8.18;;;;;;;0.97;70.85;102248.72;5064562;28;20135;-48
2023/02/08 00:56:42;;;;;;;22.10;7.18;;;;;;;0.94;70.87;102240.84;5064307;28;20140;-47
2023/02/08 00:59:09;;;;;;;24.10;10.07;;;;;;;0.93;71.17;102241.63;5047265;28;20048;-49
2023/02/08 01:01:37;;;;;;;29.25;12.05;;;;;;;0.88;70.40;102243.84;5063447;28;20947;-48
2023/02/08 01:04:04;;;;;;;27.60;10.13;;;;;;;0.84;70.93;102238.44;5048973;28;20048;-48
2023/02/08 01:06:31;;;;;;;27.17;10.68;;;;;;;0.79;70.60;102232.06;5068383;28;20131;-47
2023/02/08 01:08:57;;;;;;;28.35;9.63;;;;;;;0.74;70.44;102235.19;5065213;28;20114;-49
2023/02/08 01:11:25;;;;;;;22.15;8.27;;;;;;;0.72;71.02;102229.09;5065572;28;20608;-51
2023/02/08 01:13:56;;;;;;;20.05;7.13;;;;;;;0.72;70.66;102224.00;5063658;28;20094;-49
2023/02/08 01:16:25;;;;;;;27.73;9.32;;;;;;;0.73;70.56;102214.66;5066207;28;20408;-51
2023/02/08 01:18:54;;;;;;;24.48;7.95;;;;;;;0.74;71.02;102217.31;5044874;28;20048;-46
2023/02/08 01:21:23;;;;;;;17.85;7.45;;;;;;;0.74;70.98;102211.31;5045093;28;20052;-47
2023/02/08 01:23:50;;;;;;;20.98;9.13;;;;;;;0.73;70.15;102205.34;5061865;28;20064;-47
2023/02/08 01:26:18;;;;;;;22.25;7.93;;;;;;;0.72;71.46;102203.59;5064074;28;20048;-47
2023/02/08 01:28:45;;;;;;;17.52;7.25;;;;;;;0.71;70.78;102206.91;5063616;28;20086;-49
2023/02/08 01:31:15;;;;;;;19.33;7.63;;;;;;;0.71;70.93;102194.13;5046132;28;20083;-49
2023/02/08 01:33:42;;;;;;;23.98;7.70;;;;;;;0.71;71.49;102191.59;5062888;28;20585;-50
2023/02/08 01:36:09;;;;;;;20.05;6.80;;;;;;;0.71;71.28;102204.34;5060972;28;20064;-48
2023/02/08 01:38:37;;;;;;;18.65;7.45;;;;;;;0.71;70.66;102189.03;5063155;28;20491;-46
2023/02/08 01:41:05;;;;;;;22.98;6.22;;;;;;;0.72;71.47;102188.28;5066140;28;20503;-48
2023/02/08 01:43:53;;;;;;;25.40;8.68;;;;;;;0.72;71.62;102185.72;5046966;28;20461;-47
2023/02/08 01:46:19;;;;;;;19.60;7.28;;;;;;;0.70;71.19;102179.63;5050718;28;20064;-48
2023/02/08 01:48:46;;;;;;;17.25;6.22;;;;;;;0.69;71.26;102182.97;5062489;28;20072;-48
2023/02/08 01:51:18;;;;;;;25.05;7.03;;;;;;;0.69;71.17;102177.84;5068018;28;20076;-48
2023/02/08 01:53:47;;;;;;;21.95;7.70;;;;;;;0.69;70.81;102182.97;5067399;28;20124;-47
2023/02/08 01:56:24;;;;;;;18.58;8.35;;;;;;;0.69;71.24;102176.94;5072157;28;20098;-51
2023/02/08 01:58:56;;;;;;;23.92;6.80;;;;;;;0.67;70.79;102179.38;5060644;28;20080;-50
2023/02/08 02:01:25;;;;;;;23.70;7.82;;;;;;;0.64;70.72;102186.81;5050186;28;20415;-49
2023/02/08 02:03:52;;;;;;;19.25;5.90;;;;;;;0.62;71.39;102180.72;5063496;28;20162;-52
2023/02/08 02:06:25;;;;;;;17.83;6.80;;;;;;;0.60;70.56;102178.06;5065720;28;20049;-50
2023/02/08 02:09:01;;;;;;;24.08;9.40;;;;;;;0.57;71.58;102174.41;5071286;28;20419;-48
2023/02/08 02:11:28;;;;;;;21.15;7.00;;;;;;;0.56;71.45;102182.81;5065460;28;20083;-49
2023/02/08 02:13:56;;;;;;;20.90;8.73;;;;;;;0.53;71.83;102180.06;5060620;28;20502;-48
2023/02/08 02:16:22;;;;;;;39.33;8.60;;;;;;;0.49;71.04;102173.84;5064438;28;20040;-48
2023/02/08 02:18:49;;;;;;;27.83;7.85;;;;;;;0.47;71.15;102172.88;5064181;28;20048;-51
2023/02/08 02:27:05;;;;;;;23.02;7.95;;;;;;;0.37;71.51;102169.63;5063227;27;20755;-49
2023/02/08 02:48:19;;;;;;;22.80;7.80;;;;;;;0.14;70.80;102169.59;5060960;28;20962;-48
2023/02/08 02:51:00;;;;;;;20.35;9.63;;;;;;;0.11;71.25;102165.16;5035558;28;20091;-52
2023/02/08 02:56:11;;;;;;;22.33;11.13;;;;;;;0.11;71.61;102176.22;5054844;28;20392;-47
2023/02/08 02:58:39;;;;;;;28.20;10.98;;;;;;;0.11;71.44;102180.44;4998252;28;20046;-48
2023/02/08 03:01:06;;;;;;;29.85;12.85;;;;;;;0.10;71.28;102173.59;4988643;28;20081;-46
2023/02/08 03:03:34;;;;;;;23.60;11.20;;;;;;;0.09;71.83;102179.44;4995586;28;20057;-47
2023/02/08 03:06:13;;;;;;;26.58;11.25;;;;;;;0.10;71.60;102171.03;4996739;28;20073;-50
2023/02/08 03:11:24;;;;;;;27.90;8.82;;;;;;;0.11;72.14;102160.06;5047294;28;20401;-49
2023/02/08 03:14:05;;;;;;;26.27;8.45;;;;;;;0.09;71.70;102159.06;5020680;28;20127;-47
2023/02/08 03:19:46;;;;;;;24.67;9.20;;;;;;;0.05;72.60;102144.31;5024122;28;20853;-48
2023/02/08 03:22:19;;;;;;;21.85;10.65;;;;;;;0.01;72.69;102139.75;5006737;28;20558;-49
2023/02/08 03:24:53;;;;;;;26.58;9.88;;;;;;;-0.01;72.65;102140.53;5002875;28;20185;-49
2023/02/08 03:30:06;;;;;;;27.55;8.77;;;;;;;-0.01;72.26;102135.44;5040177;28;20435;-48
2023/02/08 03:38:14;;;;;;;30.02;10.88;;;;;;;0.15;72.95;102113.66;5058823;27;20391;-49
2023/02/08 03:40:45;;;;;;;37.13;11.48;;;;;;;0.12;72.96;102110.88;5001088;28;20085;-47
2023/02/08 03:43:18;;;;;;;36.53;11.40;;;;;;;0.10;72.89;102112.44;5018411;28;20053;-46
2023/02/08 03:45:53;;;;;;;32.08;11.52;;;;;;;0.09;72.63;102120.81;5019898;28;20069;-47
2023/02/08 03:48:23;;;;;;;27.42;9.88;;;;;;;0.09;72.65;102115.72;5015922;28;20492;-48
2023/02/08 03:50:52;;;;;;;26.85;10.25;;;;;;;0.09;72.60;102116.63;5013441;28;20053;-47
2023/02/08 03:53:21;;;;;;;23.23;9.52;;;;;;;0.09;73.06;102128.47;5014590;28;20049;-46
2023/02/08 03:55:55;;;;;;;38.20;10.60;;;;;;;0.09;73.06;102131.00;5013616;28;20056;-48
2023/02/08 04:01:07;;;;;;;26.98;10.68;;;;;;;0.08;72.54;102131.81;5076812;27;20406;-47
2023/02/08 04:03:35;;;;;;;28.50;9.50;;;;;;;0.07;72.05;102127.50;5062579;28;20055;-47
2023/02/08 04:06:02;;;;;;;30.00;12.45;;;;;;;0.07;72.36;102127.50;5062009;28;20148;-47
2023/02/08 04:08:29;;;;;;;29.42;10.80;;;;;;;0.05;72.78;102127.38;5079728;28;20067;-48
2023/02/08 04:10:57;;;;;;;27.10;9.32;;;;;;;0.06;72.99;102125.69;5074557;28;20071;-48
2023/02/08 04:13:23;;;;;;;33.63;10.85;;;;;;;0.05;72.71;102118.81;5076158;28;20553;-46
2023/02/08 04:15:50;;;;;;;26.80;12.00;;;;;;;0.04;72.70;102114.50;5078246;28;20040;-47
2023/02/08 04:18:16;;;;;;;30.80;11.38;;;;;;;0.03;72.86;102121.25;5078141;28;20091;-47
2023/02/08 04:20:43;;;;;;;28.80;10.38;;;;;;;0.03;72.50;102110.19;5077482;28;20083;-48
2023/02/08 04:23:09;;;;;;;25.73;10.30;;;;;;;0.02;72.28;102113.50;5078699;28;20102;-48
2023/02/08 04:25:36;;;;;;;25.13;8.23;;;;;;;0.01;72.94;102116.81;5074512;28;20117;-49
2023/02/08 04:28:02;;;;;;;34.17;9.98;;;;;;;0.00;72.97;102105.78;5074556;28;20059;-49
2023/02/08 04:30:29;;;;;;;35.15;10.32;;;;;;;-0.03;72.87;102096.22;5075931;28;20049;-49
2023/02/08 04:32:57;;;;;;;27.17;11.45;;;;;;;-0.05;72.61;102096.88;5078695;28;20458;-47
2023/02/08 04:35:23;;;;;;;34.17;12.18;;;;;;;-0.09;72.31;102100.88;5079162;28;20775;-48
2023/02/08 04:37:50;;;;;;;26.63;9.55;;;;;;;-0.09;72.90;102102.53;5078903;28;20621;-49
2023/02/08 04:40:16;;;;;;;29.05;10.55;;;;;;;-0.13;72.48;102098.88;5078016;28;20409;-48
2023/02/08 04:42:43;;;;;;;35.42;12.70;;;;;;;-0.15;72.76;102090.22;5075907;28;20094;-49
2023/02/08 04:45:10;;;;;;;25.95;11.88;;;;;;;-0.17;72.79;102086.69;5076780;28;20048;-49
2023/02/08 04:47:36;;;;;;;28.02;10.30;;;;;;;-0.21;72.38;102085.56;5079894;28;20052;-48
2023/02/08 04:50:03;;;;;;;25.65;11.73;;;;;;;-0.23;73.08;102086.22;5078257;28;20041;-48
2023/02/08 04:52:30;;;;;;;28.27;10.38;;;;;;;-0.26;73.02;102081.78;5079894;28;20052;-49
2023/02/08 04:54:56;;;;;;;29.35;11.15;;;;;;;-0.28;73.35;102094.41;5079311;28;20310;-47
2023/02/08 04:57:23;;;;;;;33.00;12.75;;;;;;;-0.28;72.91;102088.41;5077363;28;20075;-48
2023/02/08 04:59:49;;;;;;;31.67;12.50;;;;;;;-0.30;72.92;102090.84;5079116;28;20082;-49
2023/02/08 05:02:16;;;;;;;28.23;11.13;;;;;;;-0.35;72.64;102081.97;5077092;28;20083;-49
2023/02/08 05:04:43;;;;;;;27.23;10.18;;;;;;;-0.39;72.69;102077.44;5074168;28;20048;-49
2023/02/08 05:07:09;;;;;;;26.80;9.07;;;;;;;-0.43;72.49;102078.88;5080028;28;20062;-49
2023/02/08 05:09:36;;;;;;;25.85;10.65;;;;;;;-0.44;72.39;102076.22;5072469;28;20076;-48
2023/02/08 05:12:03;;;;;;;30.15;12.77;;;;;;;-0.46;72.74;102075.19;5068467;28;20075;-48
2023/02/08 05:14:29;;;;;;;26.55;10.27;;;;;;;-0.46;72.67;102070.09;5061603;28;20045;-48
2023/02/08 05:16:56;;;;;;;31.35;11.55;;;;;;;-0.48;73.26;102076.75;5065534;28;20135;-48
2023/02/08 05:19:23;;;;;;;24.88;10.73;;;;;;;-0.50;72.55;102080.84;5065174;28;20037;-47
2023/02/08 05:21:49;;;;;;;25.48;10.13;;;;;;;-0.53;72.41;102077.28;5058797;28;20072;-48
2023/02/08 05:24:16;;;;;;;28.15;10.60;;;;;;;-0.55;72.82;102078.81;5059802;28;20052;-45
2023/02/08 05:26:42;;;;;;;31.88;11.18;;;;;;;-0.56;72.46;102077.06;5061327;28;20164;-48
2023/02/08 05:29:09;;;;;;;28.88;10.52;;;;;;;-0.62;72.21;102076.59;5060843;28;20040;-46
2023/02/08 05:31:36;;;;;;;26.02;10.80;;;;;;;-0.65;72.65;102081.44;5058476;28;20052;-47
2023/02/08 05:34:03;;;;;;;31.85;13.10;;;;;;;-0.69;72.87;102074.34;5062206;28;20048;-50
2023/02/08 05:36:29;;;;;;;32.90;12.30;;;;;;;-0.73;72.70;102067.25;5062192;28;20044;-48
2023/02/08 05:38:56;;;;;;;26.58;10.43;;;;;;;-0.72;72.71;102071.56;5061230;28;20049;-47
2023/02/08 05:41:22;;;;;;;27.25;9.52;;;;;;;-0.73;72.82;102062.16;5060639;28;21290;-47
2023/02/08 05:43:49;;;;;;;26.05;10.50;;;;;;;-0.74;72.86;102061.28;5062369;28;20135;-48
2023/02/08 05:46:16;;;;;;;28.80;8.82;;;;;;;-0.74;72.48;102060.38;5057086;28;20102;-45
2023/02/08 05:48:42;;;;;;;29.20;10.77;;;;;;;-0.76;73.04;102056.81;5061801;28;20649;-49
2023/02/08 05:51:09;;;;;;;30.30;10.75;;;;;;;-0.78;72.89;102060.16;5063761;28;20040;-50
2023/02/08 05:53:36;;;;;;;21.88;9.43;;;;;;;-0.79;72.95;102049.84;5061384;28;20076;-49
2023/02/08 05:56:03;;;;;;;20.73;10.23;;;;;;;-0.81;73.01;102049.72;5063197;28;20052;-47
2023/02/08 05:58:30;;;;;;;23.30;10.68;;;;;;;-0.82;72.84;102053.06;5061282;28;20113;-47
2023/02/08 06:00:57;;;;;;;22.30;9.43;;;;;;;-0.84;72.78;102048.63;5055529;28;20060;-48
2023/02/08 06:03:24;;;;;;;27.25;9.32;;;;;;;-0.85;72.95;102037.53;5061066;28;20056;-50
2023/02/08 06:05:50;;;;;;;24.17;10.15;;;;;;;-0.86;72.84;102029.78;5062965;28;20045;-50
2023/02/08 06:08:17;;;;;;;28.25;11.73;;;;;;;-0.87;72.65;102033.13;5061892;28;20137;-48
2023/02/08 06:10:47;;;;;;;24.95;10.00;;;;;;;-0.88;73.03;102032.22;5062414;28;20065;-47
2023/02/08 06:13:14;;;;;;;22.02;9.50;;;;;;;-0.91;72.88;102024.38;5057862;28;20048;-46
2023/02/08 06:15:41;;;;;;;24.65;9.75;;;;;;;-0.93;73.11;102024.25;5054617;28;20115;-48
2023/02/08 06:18:08;;;;;;;22.58;8.40;;;;;;;-0.93;72.86;102026.81;5061852;28;20061;-48
2023/02/08 06:20:35;;;;;;;20.58;8.63;;;;;;;-0.93;73.59;102029.34;5058638;28;20048;-47
2023/02/08 06:23:01;;;;;;;22.27;8.00;;;;;;;-0.91;73.03;102011.66;5060574;28;20087;-47
2023/02/08 06:25:28;;;;;;;23.15;5.95;;;;;;;-0.89;73.63;102015.19;5060390;28;20051;-48
2023/02/08 06:27:55;;;;;;;18.02;8.18;;;;;;;-0.88;72.97;102021.19;5062384;28;20143;-46
2023/02/08 06:30:23;;;;;;;22.70;8.73;;;;;;;-0.89;73.13;102020.28;5060282;28;20048;-47
2023/02/08 06:32:49;;;;;;;20.65;6.80;;;;;;;-0.88;73.13;102016.94;5060953;28;20622;-49
2023/02/08 06:35:16;;;;;;;19.80;7.97;;;;;;;-0.89;72.98;102015.19;5062697;28;20087;-48
2023/02/08 06:37:43;;;;;;;23.05;10.00;;;;;;;-0.89;72.64;102010.09;5059191;28;20072;-47
2023/02/08 06:40:09;;;;;;;33.53;11.43;;;;;;;-0.91;72.89;102011.66;5060578;28;20072;-47
2023/02/08 06:42:36;;;;;;;31.98;11.32;;;;;;;-0.94;72.83;102021.59;5062088;28;20048;-51
2023/02/08 06:45:03;;;;;;;29.90;10.15;;;;;;;-0.94;72.78;102017.38;5061051;28;20061;-47
2023/02/08 06:47:30;;;;;;;20.45;8.00;;;;;;;-0.93;72.67;102018.28;5058228;28;20044;-46
2023/02/08 06:49:56;;;;;;;24.98;8.93;;;;;;;-0.92;73.12;102018.38;5059096;28;20480;-46
2023/02/08 06:52:23;;;;;;;24.60;7.60;;;;;;;-0.91;73.03;102016.75;5063305;28;20430;-49
2023/02/08 06:54:50;;;;;;;18.95;8.45;;;;;;;-0.90;72.81;102023.59;5061296;28;20476;-48
2023/02/08 06:57:16;;;;;;;28.17;9.57;;;;;;;-0.91;73.17;102022.69;5063142;28;20106;-46
2023/02/08 06:59:43;;;;;;;20.08;9.00;;;;;;;-0.91;73.23;102016.75;5052640;28;20672;-48
2023/02/08 07:02:13;;;;;;;23.35;9.70;;;;;;;-0.91;73.32;102017.63;5059226;28;20048;-48
2023/02/08 07:04:40;;;;;;;27.10;8.32;;;;;;;-0.93;73.65;102018.28;5055862;28;20128;-49
2023/02/08 07:07:06;;;;;;;27.42;10.38;;;;;;;-0.94;73.13;102021.59;5057397;28;20072;-51
2023/02/08 07:09:34;;;;;;;33.33;11.45;;;;;;;-0.96;73.26;102023.13;5058826;28;20048;-49
2023/02/08 07:12:04;;;;;;;24.60;9.75;;;;;;;-0.96;73.15;102023.13;5063967;28;20052;-46
2023/02/08 07:14:32;;;;;;;26.80;8.50;;;;;;;-0.99;73.46;102021.22;5060211;28;20080;-49
2023/02/08 07:17:00;;;;;;;27.05;11.68;;;;;;;-0.99;72.98;102023.78;5056836;28;20139;-49
2023/02/08 07:19:27;;;;;;;23.63;9.00;;;;;;;-1.00;73.29;102019.47;5059809;28;20526;-46
2023/02/08 07:21:54;;;;;;;20.65;9.43;;;;;;;-1.01;73.25;102024.44;5060805;28;20040;-46
2023/02/08 07:24:22;;;;;;;26.73;8.68;;;;;;;-1.01;73.16;102026.97;5054681;28;20103;-48
2023/02/08 07:26:48;;;;;;;28.48;9.32;;;;;;;-1.05;73.28;102031.81;5054985;28;20099;-47
2023/02/08 07:29:15;;;;;;;26.42;10.30;;;;;;;-1.04;73.19;102038.69;5054968;28;20064;-47
2023/02/08 07:31:41;;;;;;;27.73;12.23;;;;;;;-1.06;73.22;102032.59;5057697;28;20101;-48
2023/02/08 07:34:08;;;;;;;27.33;11.35;;;;;;;-1.07;73.26;102025.75;5058350;28;20046;-50
2023/02/08 07:36:35;;;;;;;27.55;10.02;;;;;;;-1.07;73.67;102035.94;5057506;28;20048;-47
2023/02/08 07:39:02;;;;;;;27.13;11.60;;;;;;;-1.07;73.70;102029.94;5061947;28;20044;-48
2023/02/08 07:41:28;;;;;;;28.35;9.95;;;;;;;-1.05;73.47;102046.19;5061267;28;20086;-49
2023/02/08 07:43:55;;;;;;;27.10;9.77;;;;;;;-1.04;72.98;102046.31;5059858;28;20421;-46
2023/02/08 07:46:22;;;;;;;25.90;11.55;;;;;;;-1.02;73.36;102048.09;5058178;28;20239;-48
2023/02/08 07:48:49;;;;;;;23.33;10.32;;;;;;;-1.00;73.05;102051.63;5055084;28;20082;-46
2023/02/08 07:51:15;;;;;;;26.52;10.38;;;;;;;-0.98;73.28;102047.56;5058598;28;20088;-49
2023/02/08 07:53:42;;;;;;;30.30;10.77;;;;;;;-0.97;72.92;102047.69;5052871;28;20045;-47
2023/02/08 07:56:09;;;;;;;24.00;9.52;;;;;;;-0.94;72.86;102047.03;5058469;28;20101;-48
2023/02/08 07:58:36;;;;;;;21.13;9.90;;;;;;;-0.91;73.19;102060.00;5058472;28;20048;-50
2023/02/08 08:01:03;;;;;;;24.50;9.25;;;;;;;-0.89;73.24;102060.97;5056514;28;20551;-50
2023/02/08 08:03:47;;;;;;;;;;;;;;;-0.89;73.22;102055.00;5054597;28;20049;-51
2023/02/08 08:06:14;;;;;;;35.15;11.13;;;;;;;-0.84;73.07;102054.56;5054044;28;20382;-51
2023/02/08 08:08:42;;;;;;;31.33;10.60;;;;;;;-0.78;72.87;102057.59;5060511;28;20149;-47
2023/02/08 08:11:08;;;;;;;31.33;11.77;;;;;;;-0.64;73.08;102055.22;5055095;28;20468;-48
2023/02/08 08:13:35;;;;;;;45.97;13.55;;;;;;;-0.16;73.28;102052.78;5056864;28;24303;-47
2023/02/08 08:16:01;;;;;;;38.80;13.77;;;;;;;0.57;73.55;102059.66;5052571;28;20136;-47
2023/02/08 08:18:28;;;;;;;37.50;11.82;;;;;;;1.28;73.68;102054.31;5055279;28;20053;-47
2023/02/08 08:20:55;;;;;;;31.08;12.40;;;;;;;2.04;73.20;102066.09;5049973;28;20049;-50
2023/02/08 08:23:22;;;;;;;31.05;10.32;;;;;;;2.76;71.32;102061.97;5059498;28;20469;-48
2023/02/08 08:25:49;;;;;;;37.50;12.60;;;;;;;3.42;71.16;102069.34;5053490;28;22166;-49
2023/02/08 08:28:15;;;;;;;26.10;13.10;;;;;;;4.15;70.36;102062.38;5054132;28;20049;-48
2023/02/08 08:30:43;;;;;;;36.10;13.70;;;;;;;4.97;69.56;102071.06;5052111;28;20052;-51
2023/02/08 08:33:13;;;;;;;29.05;11.35;;;;;;;5.83;68.99;102065.97;5056642;28;20045;-54
2023/02/08 08:35:42;;;;;;;29.08;12.05;;;;;;;6.66;68.03;102057.88;5060697;28;20045;-51
2023/02/08 08:38:09;;;;;;;30.35;11.43;;;;;;;7.52;67.80;102068.47;5060031;28;20044;-52
2023/02/08 08:40:36;;;;;;;28.38;12.02;;;;;;;8.32;65.76;102077.72;5060801;28;20087;-49
2023/02/08 08:43:02;;;;;;;29.50;11.73;;;;;;;9.08;66.57;102077.09;5057157;28;20040;-50
2023/02/08 08:45:29;;;;;;;24.95;10.38;;;;;;;9.76;64.74;102084.63;5059368;28;20076;-48
2023/02/08 08:47:55;;;;;;;24.77;10.55;;;;;;;10.40;63.45;102083.19;5066018;28;20064;-54
2023/02/08 08:50:22;;;;;;;23.58;10.27;;;;;;;10.93;61.74;102085.66;5065671;28;20127;-52
2023/02/08 08:52:49;;;;;;;33.05;10.88;;;;;;;11.19;60.21;102089.81;5065692;28;20102;-51
2023/02/08 08:55:15;;;;;;;30.20;11.05;;;;;;;11.24;61.03;102095.13;5066632;28;20095;-49
2023/02/08 08:57:42;;;;;;;27.25;10.18;;;;;;;11.29;61.12;102093.53;5064687;28;20499;-53
2023/02/08 09:00:09;;;;;;;47.25;17.42;;;;;;;11.68;60.70;102097.13;5054731;28;20048;-48
2023/02/08 09:14:25;;;;;;;20.75;9.35;;;;;;;15.10;56.75;102095.66;5057765;28;20043;-50
2023/02/08 09:16:52;;;;;;;19.98;8.85;;;;;;;15.64;54.36;102106.63;5042889;28;20049;-51
2023/02/08 09:23:11;;;;;;;25.27;8.98;;;;;;;16.78;51.96;102096.06;5042675;28;20082;-52
2023/02/08 09:25:38;;;;;;;21.70;9.68;;;;;;;17.14;49.78;102078.78;5044284;28;20052;-52
2023/02/08 09:28:05;;;;;;;25.02;9.77;;;;;;;17.33;49.27;102073.59;5040060;28;20076;-50
2023/02/08 09:30:32;;;;;;;20.33;9.32;;;;;;;17.37;48.01;102075.34;5046313;28;20051;-50
2023/02/08 09:32:58;;;;;;;21.05;10.02;;;;;;;17.60;47.39;102074.47;5051749;28;20074;-49
2023/02/08 09:35:25;;;;;;;21.25;9.95;;;;;;;17.85;46.95;102066.59;5067152;28;20129;-52
2023/02/08 09:37:54;;;;;;;23.55;10.50;;;;;;;18.21;47.50;102063.97;5069664;28;20127;-48
2023/02/08 09:40:24;;;;;;;22.17;9.63;;;;;;;18.56;46.84;102062.09;5066832;28;20500;-53
2023/02/08 09:43:02;;;;;;;19.85;9.80;;;;;;;19.02;45.80;102048.72;5047705;28;20044;-51
2023/02/08 09:45:39;;;;;;;23.02;10.57;;;;;;;19.51;45.37;102049.28;5058959;28;20079;-51
2023/02/08 09:48:30;;;;;;;26.38;11.38;;;;;;;19.98;44.69;102048.88;5051914;28;20037;-50
2023/02/08 09:51:10;;;;;;;24.33;10.75;;;;;;;20.36;43.74;102041.47;5032220;28;20474;-49
2023/02/08 09:53:46;;;;;;;26.77;11.88;;;;;;;20.70;43.16;102034.88;5063964;28;20066;-53
2023/02/08 09:56:16;;;;;;;21.73;10.63;;;;;;;20.81;41.98;102032.97;5059486;28;20049;-52
2023/02/08 09:58:48;;;;;;;25.02;10.70;;;;;;;20.92;41.81;102029.34;5035806;28;20045;-50
2023/02/08 10:01:21;;;;;;;19.48;10.02;;;;;;;21.06;41.16;102022.13;5038478;28;20040;-54
2023/02/08 10:03:50;;;;;;;19.20;10.10;;;;;;;21.02;40.16;102009.03;5048748;28;20056;-52
2023/02/08 10:06:18;;;;;;;20.92;10.00;;;;;;;20.90;40.15;102010.06;5052751;28;20040;-53
2023/02/08 10:08:48;;;;;;;20.63;8.93;;;;;;;20.74;39.99;101997.09;5048045;28;20068;-50
2023/02/08 10:31:29;;;;;;;21.73;11.23;;;;;;;21.12;38.11;101949.16;5013074;28;20415;-55
2023/02/08 10:36:40;;;;;;;24.48;10.85;;;;;;;21.03;38.45;101943.16;5058322;27;20506;-52
2023/02/08 10:39:16;;;;;;;20.40;9.52;;;;;;;21.17;38.83;101944.66;5028035;28;20136;-53
2023/02/08 10:41:44;;;;;;;18.55;8.52;;;;;;;21.16;37.91;101935.91;5021140;28;20049;-53
2023/02/08 10:46:58;;;;;;;20.83;8.93;;;;;;;20.97;37.10;101935.34;5061916;28;20399;-55
2023/02/08 10:52:09;;;;;;;21.75;11.52;;;;;;;20.77;37.62;101933.00;5018640;28;20405;-54
2023/02/08 10:54:35;;;;;;;22.70;12.48;;;;;;;20.66;36.74;101927.88;5017674;28;20042;-51
2023/02/08 10:57:11;;;;;;;20.83;11.57;;;;;;;20.51;37.59;101929.88;5021115;28;20057;-53
2023/02/08 10:59:50;;;;;;;23.92;11.02;;;;;;;20.11;37.03;101925.13;5012968;28;20058;-49
2023/02/08 11:02:35;;;;;;;19.73;9.65;;;;;;;19.17;36.57;101917.34;5013328;28;20729;-49
2023/02/08 11:05:06;;;;;;;23.60;11.45;;;;;;;17.94;37.28;101911.91;5008142;28;20109;-50
2023/02/08 11:07:33;;;;;;;24.10;10.88;;;;;;;17.13;39.10;101909.47;5008311;28;20104;-49
2023/02/08 11:12:58;;;;;;;18.98;8.60;;;;;;;15.55;41.23;101902.84;5076830;27;20497;-49
2023/02/08 11:15:33;;;;;;;17.60;7.82;;;;;;;14.85;41.61;101908.41;5061007;28;20044;-51
2023/02/08 11:18:01;;;;;;;17.67;8.55;;;;;;;14.36;42.21;101908.75;5057176;28;20500;-51
2023/02/08 11:20:35;;;;;;;20.70;8.25;;;;;;;13.81;42.80;101915.88;5065333;28;20087;-50
2023/02/08 11:23:04;;;;;;;20.58;8.90;;;;;;;13.48;43.95;101925.81;5064322;28;20053;-51
2023/02/08 11:25:35;;;;;;;23.58;8.60;;;;;;;13.11;44.28;101926.06;5057217;28;20084;-49
2023/02/08 11:28:03;;;;;;;19.95;9.20;;;;;;;12.73;44.80;101921.94;5059555;28;20084;-51
2023/02/08 11:30:32;;;;;;;18.10;7.55;;;;;;;12.23;44.90;101920.13;5059516;28;20053;-50
2023/02/08 11:33:19;;;;;;;23.48;8.98;;;;;;;11.69;46.50;101922.41;5056961;28;20414;-50
2023/02/08 11:35:53;;;;;;;21.42;8.52;;;;;;;11.39;46.81;101918.25;5056653;28;20148;-50
2023/02/08 11:38:26;;;;;;;24.40;9.48;;;;;;;11.25;47.15;101920.50;5057195;28;20531;-49
2023/02/08 11:40:56;;;;;;;22.67;8.55;;;;;;;11.22;48.18;101916.13;5066107;28;20061;-51
2023/02/08 11:43:27;;;;;;;20.27;8.60;;;;;;;11.22;47.86;101912.66;5056597;28;20162;-51
2023/02/08 11:45:56;;;;;;;22.70;8.90;;;;;;;11.24;48.17;101913.53;5072602;28;20106;-49
2023/02/08 11:51:11;;;;;;;18.88;8.77;;;;;;;11.15;49.30;101899.50;5079612;27;20384;-49
2023/02/08 11:53:40;;;;;;;24.17;8.77;;;;;;;11.06;48.48;101899.31;5033631;28;20073;-52
2023/02/08 11:59:14;;;;;;;19.83;7.80;;;;;;;10.64;49.14;101895.66;5054189;27;20414;-53
2023/02/08 12:01:42;;;;;;;20.63;8.00;;;;;;;10.47;49.60;101893.44;5043353;28;20073;-48
2023/02/08 12:04:12;;;;;;;18.10;6.63;;;;;;;10.41;50.10;101893.28;5066256;28;20374;-51
2023/02/08 12:07:18;;;;;;;21.27;7.43;;;;;;;10.29;49.80;101889.50;5069030;28;20139;-51
2023/02/08 12:21:03;;;;;;;13.20;5.82;;;;;;;9.66;50.41;101848.84;5048059;27;20897;-52
2023/02/08 12:31:59;;;;;;;9.90;4.70;;;;;;;9.46;49.51;101824.09;5030357;27;20911;-50
2023/02/08 12:48:36;;;;;;;13.90;5.68;;;;;;;8.87;51.34;101793.84;5044061;28;20441;-51
2023/02/08 12:53:47;;;;;;;14.10;6.60;;;;;;;8.85;51.26;101795.50;5069432;27;20389;-49
2023/02/08 12:56:19;;;;;;;13.32;6.32;;;;;;;8.76;51.37;101787.44;4998257;28;20054;-53
2023/02/08 12:58:50;;;;;;;15.63;4.72;;;;;;;8.74;51.32;101783.13;5025461;28;20438;-50
2023/02/08 13:01:30;;;;;;;12.23;5.95;;;;;;;8.71;50.70;101788.19;5023629;28;20201;-48
2023/02/08 13:06:41;;;;;;;13.38;3.80;;;;;;;8.61;51.19;101778.34;5051708;28;20384;-50
2023/02/08 13:09:39;;;;;;;12.68;5.03;;;;;;;8.51;50.78;101763.38;5056432;28;20049;-48
2023/02/08 13:12:19;;;;;;;11.80;4.82;;;;;;;8.51;51.38;101756.47;5058440;28;20518;-49
2023/02/08 13:14:52;;;;;;;10.00;4.47;;;;;;;8.53;51.47;101753.94;5052802;28;20216;-49
2023/02/08 13:17:35;;;;;;;8.75;3.97;;;;;;;8.51;50.76;101753.03;5060005;28;20048;-51
2023/02/08 13:20:06;;;;;;;9.80;3.55;;;;;;;8.49;51.20;101751.25;5059643;28;20064;-50
2023/02/08 13:22:38;;;;;;;7.10;3.08;;;;;;;8.38;50.77;101752.63;5058057;28;20047;-47
2023/02/08 13:25:14;;;;;;;9.48;3.25;;;;;;;8.42;50.67;101751.91;5050977;28;20041;-50
2023/02/08 13:27:41;;;;;;;11.63;4.32;;;;;;;8.40;50.56;101745.78;5050242;28;20053;-51
2023/02/08 13:30:17;;;;;;;11.50;3.25;;;;;;;8.31;51.58;101748.09;5052630;28;20068;-48
2023/02/08 13:32:45;;;;;;;11.60;5.35;;;;;;;8.31;51.82;101735.16;5052158;28;20045;-49
2023/02/08 13:35:16;;;;;;;12.20;4.85;;;;;;;8.30;51.87;101728.22;5055784;28;20063;-52
2023/02/08 13:37:51;;;;;;;10.77;3.67;;;;;;;8.26;51.33;101731.53;5053171;28;20072;-49
2023/02/08 13:40:26;;;;;;;10.35;3.92;;;;;;;8.23;51.61;101728.03;5057504;28;20077;-49